Aeroporto :
LOGIN :

Iscrizione | Disclaimer

   EN    FR    IT 

 










Sommario :    VFR   VFR Marginale   IFR   IFR Intensivo   IFR Molto Intensivo
Visibilità : 
Base nubi : 
>= 8 km
>= 3000ft
5 / 8 km
1000 / 3000 ft
1500m / 5 km
500 / 1000 ft
800 / 1500m
200 / 500 ft
< 800m
< 200 ft
Simboli :   Temporali  Nebbia  Neve Forte  Precipitazioni Forti  Vento > 20 kt
SIGMETs :   Varie  Temporali  Ghiacco  Turbolenza  Onda orograficha  Ceneri Vulcaniche






- Altitudine del aeroporto : 22 ft
- Codice IATA : LDY


EGAE - Londonderry Eglington

ULTIMO METAR :
  • 161350Z 26020KT 9999 FEW037 BKN049 21/12 Q1019

METARs OBSOLETI :
  • 161320Z 26019KT 9999 FEW028 SCT037 BKN049 21/12 Q1018
  • 161250Z 27019KT 9999 SCT028 22/14 Q1018
  • 161220Z 26016KT 9999 SCT022 21/14 Q1018
  • 161150Z 27015KT 9999 SCT022 21/15 Q1019
  • 161120Z 25015KT 9999 SCT022 20/15 Q1019

TAF TAF EGAE
Valido dal 16 a 09 ore il 16 a 18 ore UTC


160758Z 1609/1618 24012KT 9999 BKN008
BECMG 1609/1613 SCT025
PROB30
TEMPO 1609/1611 7000 -DZ
PROB30
TEMPO 1614/1618 24015G25KT



MetMap, La meteo Aeronautica in un colpo d'occhio ! - Copyright ORBIFLY Dicembre 2007 - Disclaimer

ORBIFLY MET'MAP TEAM :

Programmazione e sviluppo : Alexandra Zaïnal
Concezione : Baudouin d'Aumeries
Aiuto per la programmazione : Marc-Olivier Méhu
Supporto tecnico e logistico : Manuel Goepfert
Aiuto per la traduzione : Arnaldo La Scala

Contatto : metmap@orbifly.com




FONTI E CREDITI :

   NOAA